createdAt,value
2022-12-09T00:00:15.861Z,29.60
2022-12-09T00:02:43.607Z,27.15
2022-12-09T00:05:11.357Z,23.95
2022-12-09T00:07:39.097Z,26.13
2022-12-09T00:10:07.814Z,26.98
2022-12-09T00:12:35.336Z,40.28
2022-12-09T00:15:02.900Z,43.95
2022-12-09T00:17:31.576Z,45.60
2022-12-09T00:19:59.194Z,38.10
2022-12-09T00:22:30.278Z,39.40
2022-12-09T00:24:57.906Z,37.85
2022-12-09T00:27:25.473Z,25.55
2022-12-09T00:29:53.145Z,28.20
2022-12-09T00:32:20.520Z,26.35
2022-12-09T00:34:49.655Z,23.27
2022-12-09T00:37:17.098Z,36.70
2022-12-09T00:39:44.979Z,25.75
2022-12-09T00:42:12.816Z,31.98
2022-12-09T00:44:40.479Z,33.25
2022-12-09T00:47:08.652Z,36.63
2022-12-09T00:49:36.337Z,22.83
2022-12-09T00:52:04.257Z,22.77
2022-12-09T00:54:32.045Z,22.98
2022-12-09T00:56:59.946Z,22.98
2022-12-09T00:59:27.566Z,23.25
2022-12-09T01:01:55.547Z,21.30
2022-12-09T01:04:25.518Z,25.10
2022-12-09T01:06:53.343Z,28.95
2022-12-09T01:09:21.080Z,27.40
2022-12-09T01:11:49.041Z,25.77
2022-12-09T01:14:16.526Z,26.48
2022-12-09T01:16:44.376Z,30.10
2022-12-09T01:19:13.717Z,26.67
2022-12-09T01:21:41.467Z,24.52
2022-12-09T01:24:12.739Z,25.85
2022-12-09T01:26:40.795Z,29.73
2022-12-09T01:29:08.627Z,33.88
2022-12-09T01:31:36.369Z,27.13
2022-12-09T01:34:04.495Z,22.00
2022-12-09T01:36:32.582Z,22.35
2022-12-09T01:39:00.972Z,24.95
2022-12-09T01:41:28.912Z,23.23
2022-12-09T01:44:14.338Z,22.13
2022-12-09T01:46:42.810Z,28.58
2022-12-09T01:49:12.429Z,27.25
2022-12-09T01:51:40.700Z,24.23
2022-12-09T01:54:08.845Z,23.40
2022-12-09T01:56:37.223Z,23.08
2022-12-09T01:59:07.835Z,23.77
2022-12-09T02:01:36.298Z,27.52
2022-12-09T02:04:05.007Z,23.83
2022-12-09T02:06:33.240Z,25.25
2022-12-09T02:09:01.077Z,24.20
2022-12-09T02:11:35.058Z,23.45
2022-12-09T02:14:17.307Z,25.95
2022-12-09T02:16:54.425Z,23.85
2022-12-09T02:19:37.877Z,22.95
2022-12-09T02:22:05.903Z,24.73
2022-12-09T02:24:33.448Z,22.55
2022-12-09T02:27:07.335Z,20.85
2022-12-09T02:29:37.906Z,21.15
2022-12-09T02:32:17.896Z,21.40
2022-12-09T02:34:47.563Z,21.95
2022-12-09T02:37:19.140Z,22.13
2022-12-09T02:39:53.035Z,23.55
2022-12-09T02:42:22.876Z,20.08
2022-12-09T02:44:52.053Z,20.45
2022-12-09T02:47:21.407Z,22.35
2022-12-09T02:49:51.249Z,20.63
2022-12-09T02:52:19.569Z,19.92
2022-12-09T02:54:48.375Z,19.92
2022-12-09T02:57:19.404Z,18.77
2022-12-09T02:59:46.927Z,20.27
2022-12-09T03:02:33.290Z,18.67
2022-12-09T03:05:10.704Z,19.58
2022-12-09T03:07:38.812Z,18.08
2022-12-09T03:10:12.132Z,18.95
2022-12-09T03:12:41.793Z,19.35
2022-12-09T03:15:12.715Z,17.13
2022-12-09T03:17:41.746Z,19.00
2022-12-09T03:20:14.237Z,19.23
2022-12-09T03:22:42.689Z,18.02
2022-12-09T03:25:14.181Z,19.38
2022-12-09T03:27:50.494Z,18.63
2022-12-09T03:30:18.714Z,19.25
2022-12-09T03:32:47.021Z,20.92
2022-12-09T03:35:19.399Z,16.77
2022-12-09T03:37:48.382Z,20.52
2022-12-09T03:40:18.578Z,19.30
2022-12-09T03:42:55.948Z,20.27
2022-12-09T03:45:25.518Z,18.75
2022-12-09T03:47:54.110Z,20.52
2022-12-09T03:50:24.536Z,20.13
2022-12-09T03:52:58.961Z,19.80
2022-12-09T03:55:29.292Z,19.85
2022-12-09T03:57:58.754Z,18.88
2022-12-09T04:00:27.020Z,20.45
2022-12-09T04:02:55.226Z,19.88
2022-12-09T04:05:23.235Z,18.85
2022-12-09T04:07:51.096Z,20.55
2022-12-09T04:10:18.755Z,21.67
2022-12-09T04:12:46.773Z,20.33
2022-12-09T04:15:14.517Z,21.08
2022-12-09T04:17:42.393Z,20.27
2022-12-09T04:20:10.769Z,20.23
2022-12-09T04:22:38.444Z,21.55
2022-12-09T04:25:06.205Z,22.00
2022-12-09T04:27:33.912Z,21.23
2022-12-09T04:30:01.750Z,21.55
2022-12-09T04:32:30.579Z,19.58
2022-12-09T04:34:58.745Z,22.48
2022-12-09T04:37:26.752Z,21.73
2022-12-09T04:39:54.195Z,20.02
2022-12-09T04:42:21.886Z,21.75
2022-12-09T04:44:49.684Z,21.05
2022-12-09T04:47:17.920Z,25.40
2022-12-09T04:49:45.942Z,25.02
2022-12-09T04:52:14.258Z,23.35
2022-12-09T04:54:42.320Z,25.90
2022-12-09T04:57:09.938Z,23.50
2022-12-09T04:59:37.454Z,23.40
2022-12-09T05:02:05.672Z,23.48
2022-12-09T05:04:33.620Z,23.77
2022-12-09T05:07:01.796Z,23.98
2022-12-09T05:09:29.816Z,23.75
2022-12-09T05:11:58.714Z,23.42
2022-12-09T05:14:26.409Z,24.08
2022-12-09T05:16:54.160Z,26.75
2022-12-09T05:19:22.779Z,25.67
2022-12-09T05:21:50.832Z,23.88
2022-12-09T05:24:18.996Z,24.92
2022-12-09T05:26:46.779Z,22.40
2022-12-09T05:29:20.834Z,22.08
2022-12-09T05:31:51.970Z,23.23
2022-12-09T05:34:20.478Z,24.08
2022-12-09T05:36:48.197Z,27.63
2022-12-09T05:39:15.850Z,27.52
2022-12-09T05:41:44.015Z,27.45
2022-12-09T05:44:15.291Z,26.98
2022-12-09T05:46:42.978Z,27.20
2022-12-09T05:49:12.821Z,27.98
2022-12-09T05:51:40.836Z,26.52
2022-12-09T05:54:08.919Z,29.75
2022-12-09T05:56:36.995Z,29.08
2022-12-09T05:59:05.017Z,30.52
2022-12-09T06:01:32.483Z,28.40
2022-12-09T06:04:00.461Z,27.33
2022-12-09T06:06:31.142Z,26.90
2022-12-09T06:09:00.641Z,28.38
2022-12-09T06:11:31.615Z,28.33
2022-12-09T06:13:59.561Z,28.05
2022-12-09T06:16:28.282Z,27.27
2022-12-09T06:18:56.300Z,28.10
2022-12-09T06:21:24.669Z,27.20
2022-12-09T06:23:53.611Z,27.75
2022-12-09T06:26:26.129Z,26.20
2022-12-09T06:28:54.260Z,29.75
2022-12-09T06:31:22.507Z,31.63
2022-12-09T06:33:55.857Z,28.63
2022-12-09T06:36:25.994Z,26.20
2022-12-09T06:38:54.029Z,27.88
2022-12-09T06:41:21.959Z,28.17
2022-12-09T06:43:50.248Z,30.88
2022-12-09T06:46:19.717Z,27.58
2022-12-09T06:48:48.324Z,28.35
2022-12-09T06:51:17.178Z,30.20
2022-12-09T06:53:45.527Z,29.85
2022-12-09T06:56:13.789Z,30.73
2022-12-09T06:58:43.092Z,30.40
2022-12-09T07:01:13.972Z,31.17
2022-12-09T07:03:42.842Z,27.65
2022-12-09T07:06:20.296Z,30.02
2022-12-09T07:08:48.497Z,30.10
2022-12-09T07:11:16.284Z,30.95
2022-12-09T07:13:44.279Z,31.00
2022-12-09T07:16:12.616Z,31.42
2022-12-09T07:18:40.565Z,27.77
2022-12-09T07:21:09.320Z,27.67
2022-12-09T07:23:37.100Z,30.90
2022-12-09T07:26:07.415Z,28.30
2022-12-09T07:28:36.399Z,29.83
2022-12-09T07:31:04.565Z,30.52
2022-12-09T07:33:32.661Z,29.60
2022-12-09T07:36:01.107Z,30.33
2022-12-09T07:38:29.169Z,29.73
2022-12-09T07:41:05.553Z,32.50
2022-12-09T07:43:36.744Z,28.33
2022-12-09T07:46:08.030Z,29.75
2022-12-09T07:48:36.354Z,30.90
2022-12-09T07:51:05.446Z,26.88
2022-12-09T07:53:33.333Z,32.33
2022-12-09T07:56:08.620Z,29.05
2022-12-09T07:58:36.380Z,28.75
2022-12-09T08:01:12.066Z,30.77
2022-12-09T08:03:40.513Z,28.45
2022-12-09T08:06:09.184Z,29.88
2022-12-09T08:08:37.011Z,29.45
2022-12-09T08:11:12.009Z,29.70
2022-12-09T08:13:42.441Z,30.58
2022-12-09T08:16:11.473Z,27.65
2022-12-09T08:18:40.270Z,30.75
2022-12-09T08:21:09.597Z,29.38
2022-12-09T08:23:38.052Z,27.60
2022-12-09T08:26:10.388Z,29.52
2022-12-09T08:28:38.725Z,27.95
2022-12-09T08:31:12.340Z,27.63
2022-12-09T08:33:40.690Z,33.63
2022-12-09T08:36:16.584Z,29.40
2022-12-09T08:38:44.345Z,29.80
2022-12-09T08:41:11.880Z,29.98
2022-12-09T08:43:40.094Z,28.83
2022-12-09T08:46:07.987Z,28.50
2022-12-09T08:48:40.056Z,28.10
2022-12-09T08:51:09.367Z,28.20
2022-12-09T08:53:37.085Z,28.42
2022-12-09T08:56:11.858Z,26.58
2022-12-09T08:58:40.287Z,28.40
2022-12-09T09:01:08.907Z,26.73
2022-12-09T09:03:37.373Z,25.67
2022-12-09T09:06:10.335Z,26.15
2022-12-09T09:08:39.171Z,24.90
2022-12-09T09:11:11.479Z,24.45
2022-12-09T09:13:40.752Z,23.17
2022-12-09T09:16:12.468Z,23.63
2022-12-09T09:18:40.447Z,23.70
2022-12-09T09:21:09.725Z,23.85
2022-12-09T09:23:38.125Z,22.85
2022-12-09T09:26:05.808Z,26.40
2022-12-09T09:28:33.438Z,26.50
2022-12-09T09:31:01.876Z,18.42
2022-12-09T09:33:30.697Z,23.83
2022-12-09T09:35:59.294Z,22.27
2022-12-09T09:38:28.293Z,20.35
2022-12-09T09:40:56.776Z,22.70
2022-12-09T09:43:26.523Z,22.27
2022-12-09T09:45:56.184Z,23.20
2022-12-09T09:48:26.078Z,19.48
2022-12-09T09:51:02.400Z,22.38
2022-12-09T09:53:31.479Z,23.50
2022-12-09T09:56:18.376Z,22.05
2022-12-09T09:58:50.331Z,24.50
2022-12-09T10:01:19.837Z,24.55
2022-12-09T10:03:53.935Z,21.25
2022-12-09T10:08:49.701Z,21.77
2022-12-09T10:11:21.095Z,19.65
2022-12-09T10:13:54.975Z,22.50
2022-12-09T10:16:43.672Z,22.10
2022-12-09T10:19:30.250Z,21.17
2022-12-09T10:22:00.800Z,23.40
2022-12-09T10:24:40.712Z,25.00
2022-12-09T10:27:15.986Z,21.52
2022-12-09T10:29:56.048Z,20.80
2022-12-09T10:32:26.850Z,22.55
2022-12-09T10:34:55.158Z,23.48
2022-12-09T10:37:29.046Z,23.27
2022-12-09T10:40:17.684Z,21.85
2022-12-09T10:43:07.238Z,20.40
2022-12-09T10:46:07.803Z,21.08
2022-12-09T10:48:34.583Z,21.73
2022-12-09T10:51:04.990Z,21.52
2022-12-09T10:53:33.812Z,21.25
2022-12-09T10:56:03.348Z,19.95
2022-12-09T10:58:32.500Z,21.63
2022-12-09T11:01:02.140Z,20.85
2022-12-09T11:03:31.563Z,21.50
2022-12-09T11:06:00.913Z,23.38
2022-12-09T11:08:29.317Z,24.23
2022-12-09T11:10:57.754Z,21.88
2022-12-09T11:13:30.266Z,22.08
2022-12-09T11:16:03.879Z,25.55
2022-12-09T11:18:33.101Z,22.60
2022-12-09T11:21:02.324Z,25.42
2022-12-09T11:23:30.797Z,23.77
2022-12-09T11:26:04.729Z,22.85
2022-12-09T11:28:36.885Z,23.27
2022-12-09T11:31:29.040Z,21.02
2022-12-09T11:34:00.503Z,24.85
2022-12-09T11:36:31.259Z,22.20
2022-12-09T11:39:11.146Z,22.75
2022-12-09T11:41:57.097Z,24.90
2022-12-09T11:44:28.863Z,25.08
2022-12-09T11:47:01.297Z,22.95
2022-12-09T11:49:29.745Z,22.77
2022-12-09T11:52:08.397Z,26.17
2022-12-09T11:54:39.587Z,26.80
2022-12-09T11:57:08.335Z,23.73
2022-12-09T11:59:39.927Z,27.92
2022-12-09T12:02:19.741Z,25.40
2022-12-09T12:04:56.340Z,26.48
2022-12-09T12:07:27.256Z,24.20
2022-12-09T12:09:59.622Z,25.55
2022-12-09T12:12:45.075Z,26.60
2022-12-09T12:15:22.505Z,25.08
2022-12-09T12:17:51.354Z,26.98
2022-12-09T12:20:18.821Z,26.50
2022-12-09T12:22:54.521Z,25.50
2022-12-09T12:25:38.872Z,27.08
2022-12-09T12:28:24.985Z,25.08
2022-12-09T12:31:01.697Z,26.20
2022-12-09T12:36:45.367Z,28.52
2022-12-09T12:39:45.424Z,26.15
2022-12-09T12:42:31.475Z,25.92
2022-12-09T12:45:22.775Z,23.77
2022-12-09T12:47:53.175Z,25.42
2022-12-09T12:50:27.052Z,24.85
2022-12-09T12:53:27.557Z,24.10
2022-12-09T12:55:59.521Z,23.88
2022-12-09T12:58:49.167Z,25.67
2022-12-09T13:01:35.624Z,23.25
2022-12-09T13:04:08.084Z,24.25
2022-12-09T13:06:50.674Z,24.88
2022-12-09T13:09:27.355Z,23.10
2022-12-09T13:12:00.699Z,26.65
2022-12-09T13:14:32.883Z,26.00
2022-12-09T13:17:01.725Z,26.80
2022-12-09T13:19:36.035Z,26.80
2022-12-09T13:22:04.982Z,24.67
2022-12-09T13:24:36.063Z,26.52
2022-12-09T13:27:06.641Z,25.85
2022-12-09T13:29:37.095Z,22.92
2022-12-09T13:32:11.985Z,25.40
2022-12-09T13:34:43.582Z,21.63
2022-12-09T13:37:47.372Z,22.13
2022-12-09T13:40:36.239Z,24.38
2022-12-09T13:43:03.985Z,25.65
2022-12-09T13:45:36.345Z,23.20
2022-12-09T13:48:16.889Z,24.40
2022-12-09T13:50:56.375Z,22.70
2022-12-09T13:53:24.017Z,25.67
2022-12-09T13:55:53.829Z,25.38
2022-12-09T13:58:24.235Z,23.58
2022-12-09T14:01:04.864Z,24.73
2022-12-09T14:03:38.539Z,23.75
2022-12-09T14:06:17.995Z,23.10
2022-12-09T14:08:47.885Z,23.48
2022-12-09T14:11:34.208Z,24.15
2022-12-09T14:14:20.615Z,23.15
2022-12-09T14:16:48.424Z,24.90
2022-12-09T14:19:24.778Z,22.08
2022-12-09T14:22:18.258Z,23.30
2022-12-09T14:24:46.785Z,26.27
2022-12-09T14:27:15.583Z,26.17
2022-12-09T14:29:47.865Z,25.15
2022-12-09T14:32:22.934Z,23.90
2022-12-09T14:35:06.786Z,24.13
2022-12-09T14:37:38.625Z,25.85
2022-12-09T14:40:20.149Z,31.90
2022-12-09T14:42:47.666Z,24.50
2022-12-09T14:45:35.346Z,26.88
2022-12-09T14:48:03.467Z,26.98
2022-12-09T14:50:30.965Z,25.88
2022-12-09T14:53:03.180Z,25.35
2022-12-09T14:55:31.586Z,24.60
2022-12-09T14:58:01.367Z,26.80
2022-12-09T15:00:28.973Z,24.85
2022-12-09T15:03:30.756Z,25.02
2022-12-09T15:06:03.246Z,23.80
2022-12-09T15:08:32.674Z,26.05
2022-12-09T15:11:01.389Z,23.85
2022-12-09T15:13:30.747Z,25.90
2022-12-09T15:15:58.378Z,30.77
2022-12-09T15:18:26.664Z,28.90
2022-12-09T15:21:01.826Z,23.65
2022-12-09T15:23:35.139Z,25.20
2022-12-09T15:26:04.641Z,22.70
2022-12-09T15:28:33.527Z,23.30
2022-12-09T15:31:09.188Z,26.27
2022-12-09T15:33:50.650Z,22.60
2022-12-09T15:36:21.848Z,22.75
2022-12-09T15:38:52.035Z,24.77
2022-12-09T15:41:39.531Z,23.77
2022-12-09T15:44:09.917Z,23.80
2022-12-09T15:46:38.468Z,23.90
2022-12-09T15:49:06.511Z,19.75
2022-12-09T15:51:35.970Z,21.52
2022-12-09T15:54:05.784Z,19.83
2022-12-09T15:56:33.310Z,20.60
2022-12-09T15:59:07.607Z,20.63
2022-12-09T16:01:35.788Z,19.45
2022-12-09T16:04:04.507Z,19.88
2022-12-09T16:06:34.389Z,21.70
2022-12-09T16:09:02.390Z,18.85
2022-12-09T16:11:48.097Z,18.60
2022-12-09T16:14:16.540Z,20.60
2022-12-09T16:16:44.139Z,18.80
2022-12-09T16:19:28.297Z,19.60
2022-12-09T16:21:57.700Z,17.70
2022-12-09T16:24:28.222Z,19.85
2022-12-09T16:27:07.714Z,17.55
2022-12-09T16:29:37.016Z,19.08
2022-12-09T16:32:22.037Z,22.42
2022-12-09T16:34:51.360Z,18.40
2022-12-09T16:37:29.726Z,17.95
2022-12-09T16:39:58.079Z,22.58
2022-12-09T16:42:30.424Z,18.73
2022-12-09T16:45:22.309Z,17.67
2022-12-09T16:47:59.649Z,16.92
2022-12-09T16:50:28.711Z,17.33
2022-12-09T16:52:56.250Z,17.63
2022-12-09T16:55:25.258Z,19.95
2022-12-09T16:57:54.076Z,20.33
2022-12-09T17:00:22.149Z,18.98
2022-12-09T17:02:51.987Z,18.90
2022-12-09T17:05:19.534Z,20.42
2022-12-09T17:07:47.520Z,18.80
2022-12-09T17:10:15.509Z,20.60
2022-12-09T17:12:43.779Z,19.75
2022-12-09T17:15:15.578Z,20.50
2022-12-09T17:17:48.258Z,18.67
2022-12-09T17:20:16.496Z,19.20
2022-12-09T17:22:43.966Z,18.17
2022-12-09T17:25:12.855Z,18.30
2022-12-09T17:27:40.520Z,18.10
2022-12-09T17:30:08.226Z,18.75
2022-12-09T17:32:35.902Z,20.13
2022-12-09T17:35:07.453Z,18.85
2022-12-09T17:37:38.196Z,18.15
2022-12-09T17:40:05.797Z,19.98
2022-12-09T17:42:34.017Z,19.15
2022-12-09T17:45:01.514Z,17.73
2022-12-09T17:47:29.687Z,18.58
2022-12-09T17:49:57.255Z,17.10
2022-12-09T17:52:24.981Z,17.92
2022-12-09T17:54:52.486Z,16.95
2022-12-09T17:57:19.975Z,18.65
2022-12-09T17:59:47.706Z,17.65
2022-12-09T18:02:15.213Z,17.63
2022-12-09T18:04:42.779Z,16.77
2022-12-09T18:07:10.329Z,20.95
2022-12-09T18:09:37.748Z,20.30
2022-12-09T18:12:05.156Z,18.13
2022-12-09T18:14:32.747Z,17.98
2022-12-09T18:17:01.201Z,17.38
2022-12-09T18:19:30.234Z,17.45
2022-12-09T18:21:57.747Z,17.00
2022-12-09T18:24:25.276Z,16.70
2022-12-09T18:26:53.018Z,16.67
2022-12-09T18:29:22.719Z,15.93
2022-12-09T18:31:55.783Z,17.30
2022-12-09T18:34:27.125Z,17.58
2022-12-09T18:36:55.143Z,17.77
2022-12-09T18:39:23.218Z,17.77
2022-12-09T18:41:50.715Z,15.80
2022-12-09T18:44:18.392Z,15.15
2022-12-09T18:46:47.292Z,16.30
2022-12-09T18:49:16.154Z,15.75
2022-12-09T18:51:44.958Z,15.57
2022-12-09T18:54:16.350Z,16.40
2022-12-09T18:56:44.085Z,15.35
2022-12-09T18:59:12.147Z,15.43
2022-12-09T19:01:43.705Z,14.45
2022-12-09T19:04:15.839Z,15.23
2022-12-09T19:06:44.696Z,15.43
2022-12-09T19:09:14.389Z,15.23
2022-12-09T19:11:42.312Z,15.13
2022-12-09T19:14:09.924Z,16.10
2022-12-09T19:16:37.536Z,16.20
2022-12-09T19:19:09.706Z,16.27
2022-12-09T19:21:38.178Z,17.55
2022-12-09T19:24:06.084Z,17.20
2022-12-09T19:26:34.786Z,18.42
2022-12-09T19:29:03.553Z,18.92
2022-12-09T19:31:32.665Z,17.25
2022-12-09T19:34:01.328Z,17.65
2022-12-09T19:36:29.918Z,16.67
2022-12-09T19:38:58.899Z,17.25
2022-12-09T19:41:26.739Z,17.73
2022-12-09T19:43:58.638Z,18.10
2022-12-09T19:46:27.160Z,17.05
2022-12-09T19:48:54.973Z,18.83
2022-12-09T19:51:22.819Z,20.40
2022-12-09T19:53:50.589Z,21.05
2022-12-09T19:56:19.366Z,19.55
2022-12-09T19:58:47.925Z,19.65
2022-12-09T20:01:16.991Z,21.45
2022-12-09T20:03:45.529Z,22.48
2022-12-09T20:06:14.635Z,19.63
2022-12-09T20:08:42.029Z,20.27
2022-12-09T20:11:16.986Z,21.20
2022-12-09T20:13:44.808Z,19.77
2022-12-09T20:16:13.935Z,19.85
2022-12-09T20:18:41.861Z,19.98
2022-12-09T20:21:11.316Z,25.00
2022-12-09T20:23:40.566Z,23.40
2022-12-09T20:26:12.786Z,22.30
2022-12-09T20:28:40.746Z,21.35
2022-12-09T20:31:09.851Z,19.77
2022-12-09T20:33:37.685Z,21.27
2022-12-09T20:36:12.655Z,19.35
2022-12-09T20:38:40.322Z,21.02
2022-12-09T20:41:10.575Z,17.95
2022-12-09T20:43:41.825Z,18.83
2022-12-09T20:46:10.941Z,20.08
2022-12-09T20:48:39.340Z,20.33
2022-12-09T20:51:17.613Z,19.67
2022-12-09T20:53:45.886Z,19.88
2022-12-09T20:56:13.858Z,19.48
2022-12-09T20:58:42.257Z,19.08
2022-12-09T21:01:13.906Z,17.52
2022-12-09T21:03:41.825Z,17.60
2022-12-09T21:06:10.206Z,19.63
2022-12-09T21:08:38.160Z,19.42
2022-12-09T21:11:10.409Z,17.65
2022-12-09T21:13:39.309Z,18.58
2022-12-09T21:16:07.952Z,18.50
2022-12-09T21:18:36.499Z,21.05
2022-12-09T21:21:04.619Z,21.67
2022-12-09T21:23:34.404Z,21.98
2022-12-09T21:26:09.745Z,20.90
2022-12-09T21:28:37.896Z,21.02
2022-12-09T21:31:33.220Z,20.67
2022-12-09T21:34:03.250Z,19.98
2022-12-09T21:36:32.424Z,20.10
2022-12-09T21:38:59.985Z,18.40
2022-12-09T21:41:28.869Z,18.08
2022-12-09T21:43:56.976Z,18.23
2022-12-09T21:46:31.511Z,19.42
2022-12-09T21:49:03.684Z,19.33
2022-12-09T21:51:33.558Z,18.05
2022-12-09T21:54:01.485Z,19.55
2022-12-09T21:56:33.688Z,20.23
2022-12-09T21:59:01.765Z,19.73
2022-12-09T22:01:34.478Z,18.83
2022-12-09T22:04:02.497Z,19.30
2022-12-09T22:06:30.438Z,20.67
2022-12-09T22:09:01.470Z,20.00
2022-12-09T22:11:31.939Z,20.10
2022-12-09T22:14:00.553Z,19.52
2022-12-09T22:16:30.285Z,19.15
2022-12-09T22:18:58.838Z,18.83
2022-12-09T22:21:29.288Z,19.70
2022-12-09T22:23:58.748Z,19.23
2022-12-09T22:26:27.139Z,18.88
2022-12-09T22:28:55.195Z,21.80
2022-12-09T22:31:24.176Z,20.38
2022-12-09T22:33:52.588Z,20.25
2022-12-09T22:36:20.965Z,21.58
2022-12-09T22:38:49.035Z,20.02
2022-12-09T22:41:18.761Z,20.42
2022-12-09T22:43:46.205Z,20.60
2022-12-09T22:46:18.481Z,19.15
2022-12-09T22:48:46.788Z,20.13
2022-12-09T22:51:18.666Z,20.35
2022-12-09T22:53:46.458Z,20.25
2022-12-09T22:56:14.288Z,20.95
2022-12-09T22:58:42.111Z,20.67
2022-12-09T23:01:13.255Z,20.85
2022-12-09T23:03:41.186Z,19.98
2022-12-09T23:06:09.179Z,20.17
2022-12-09T23:08:38.075Z,22.08
2022-12-09T23:11:07.078Z,19.73
2022-12-09T23:13:40.477Z,20.25
2022-12-09T23:18:37.159Z,19.17
2022-12-09T23:21:10.251Z,19.67
2022-12-09T23:23:37.877Z,19.40
2022-12-09T23:26:06.514Z,19.17
2022-12-09T23:28:38.723Z,22.05
2022-12-09T23:31:09.411Z,20.83
2022-12-09T23:33:37.886Z,21.08
2022-12-09T23:36:09.237Z,20.17
2022-12-09T23:38:37.096Z,19.15
2022-12-09T23:41:05.016Z,21.08
2022-12-09T23:43:33.457Z,21.30
2022-12-09T23:46:02.344Z,20.85
2022-12-09T23:48:30.184Z,18.63
2022-12-09T23:50:58.036Z,20.02
2022-12-09T23:53:25.606Z,19.75
2022-12-09T23:55:53.478Z,19.85
2022-12-09T23:58:21.066Z,20.38
